sensor_id;sensor_type;location;lat;lon;timestamp;P1;durP1;ratioP1;P2;durP2;ratioP2
7473;SDS011;3778;42.572;23.426;2023-03-05T00:01:12;24.07;;;11.90;;
7473;SDS011;3778;42.572;23.426;2023-03-05T00:03:40;22.63;;;12.00;;
7473;SDS011;3778;42.572;23.426;2023-03-05T00:06:07;27.07;;;12.97;;
7473;SDS011;3778;42.572;23.426;2023-03-05T00:08:34;29.63;;;11.50;;
7473;SDS011;3778;42.572;23.426;2023-03-05T00:11:02;23.90;;;12.93;;
7473;SDS011;3778;42.572;23.426;2023-03-05T00:13:31;26.47;;;13.73;;
7473;SDS011;3778;42.572;23.426;2023-03-05T00:16:00;26.20;;;12.60;;
7473;SDS011;3778;42.572;23.426;2023-03-05T00:18:27;27.90;;;12.93;;
7473;SDS011;3778;42.572;23.426;2023-03-05T00:20:54;26.70;;;13.43;;
7473;SDS011;3778;42.572;23.426;2023-03-05T00:23:21;28.83;;;12.57;;
7473;SDS011;3778;42.572;23.426;2023-03-05T00:25:48;26.30;;;12.47;;
7473;SDS011;3778;42.572;23.426;2023-03-05T00:28:14;31.60;;;15.30;;
7473;SDS011;3778;42.572;23.426;2023-03-05T00:30:42;19.97;;;11.77;;
7473;SDS011;3778;42.572;23.426;2023-03-05T00:33:10;27.17;;;13.57;;
7473;SDS011;3778;42.572;23.426;2023-03-05T00:35:38;31.10;;;12.80;;
7473;SDS011;3778;42.572;23.426;2023-03-05T00:38:05;29.73;;;12.17;;
7473;SDS011;3778;42.572;23.426;2023-03-05T00:40:33;28.93;;;14.03;;
7473;SDS011;3778;42.572;23.426;2023-03-05T00:43:02;23.23;;;12.37;;
7473;SDS011;3778;42.572;23.426;2023-03-05T00:45:29;27.10;;;12.67;;
7473;SDS011;3778;42.572;23.426;2023-03-05T00:47:57;26.70;;;15.93;;
7473;SDS011;3778;42.572;23.426;2023-03-05T00:50:24;23.87;;;12.53;;
7473;SDS011;3778;42.572;23.426;2023-03-05T00:52:51;25.17;;;13.07;;
7473;SDS011;3778;42.572;23.426;2023-03-05T00:55:18;30.03;;;14.37;;
7473;SDS011;3778;42.572;23.426;2023-03-05T00:57:45;27.60;;;14.17;;
7473;SDS011;3778;42.572;23.426;2023-03-05T01:00:12;25.97;;;13.27;;
7473;SDS011;3778;42.572;23.426;2023-03-05T01:02:40;32.83;;;13.77;;
7473;SDS011;3778;42.572;23.426;2023-03-05T01:05:10;25.83;;;12.80;;
7473;SDS011;3778;42.572;23.426;2023-03-05T01:07:38;26.80;;;13.53;;
7473;SDS011;3778;42.572;23.426;2023-03-05T01:10:05;29.37;;;14.87;;
7473;SDS011;3778;42.572;23.426;2023-03-05T01:12:33;24.10;;;13.23;;
7473;SDS011;3778;42.572;23.426;2023-03-05T01:15:00;35.07;;;17.07;;
7473;SDS011;3778;42.572;23.426;2023-03-05T01:17:27;29.17;;;15.67;;
7473;SDS011;3778;42.572;23.426;2023-03-05T01:19:54;25.27;;;12.70;;
7473;SDS011;3778;42.572;23.426;2023-03-05T01:22:22;27.77;;;14.87;;
7473;SDS011;3778;42.572;23.426;2023-03-05T01:24:49;25.53;;;13.83;;
7473;SDS011;3778;42.572;23.426;2023-03-05T01:27:15;28.83;;;12.87;;
7473;SDS011;3778;42.572;23.426;2023-03-05T01:29:42;31.20;;;15.77;;
7473;SDS011;3778;42.572;23.426;2023-03-05T01:32:09;29.27;;;14.30;;
7473;SDS011;3778;42.572;23.426;2023-03-05T01:34:35;28.60;;;15.80;;
7473;SDS011;3778;42.572;23.426;2023-03-05T01:37:02;28.50;;;14.33;;
7473;SDS011;3778;42.572;23.426;2023-03-05T01:39:31;25.00;;;12.57;;
7473;SDS011;3778;42.572;23.426;2023-03-05T01:41:57;35.67;;;14.50;;
7473;SDS011;3778;42.572;23.426;2023-03-05T01:44:24;28.17;;;14.57;;
7473;SDS011;3778;42.572;23.426;2023-03-05T01:46:52;21.50;;;12.03;;
7473;SDS011;3778;42.572;23.426;2023-03-05T01:49:20;23.47;;;13.07;;
7473;SDS011;3778;42.572;23.426;2023-03-05T01:51:54;27.60;;;14.30;;
7473;SDS011;3778;42.572;23.426;2023-03-05T01:54:29;37.57;;;16.40;;
7473;SDS011;3778;42.572;23.426;2023-03-05T01:57:02;29.67;;;14.53;;
7473;SDS011;3778;42.572;23.426;2023-03-05T01:59:33;34.20;;;16.23;;
7473;SDS011;3778;42.572;23.426;2023-03-05T02:02:02;32.90;;;14.90;;
7473;SDS011;3778;42.572;23.426;2023-03-05T02:04:31;31.07;;;14.37;;
7473;SDS011;3778;42.572;23.426;2023-03-05T02:07:03;27.90;;;15.23;;
7473;SDS011;3778;42.572;23.426;2023-03-05T02:09:30;35.50;;;14.43;;
7473;SDS011;3778;42.572;23.426;2023-03-05T02:11:58;40.57;;;16.17;;
7473;SDS011;3778;42.572;23.426;2023-03-05T02:14:25;34.10;;;15.83;;
7473;SDS011;3778;42.572;23.426;2023-03-05T02:16:52;27.67;;;14.27;;
7473;SDS011;3778;42.572;23.426;2023-03-05T02:19:19;26.83;;;12.53;;
7473;SDS011;3778;42.572;23.426;2023-03-05T02:21:47;24.37;;;13.07;;
7473;SDS011;3778;42.572;23.426;2023-03-05T02:24:15;28.67;;;14.33;;
7473;SDS011;3778;42.572;23.426;2023-03-05T02:26:43;27.23;;;14.77;;
7473;SDS011;3778;42.572;23.426;2023-03-05T02:29:13;29.43;;;14.70;;
7473;SDS011;3778;42.572;23.426;2023-03-05T02:31:42;30.40;;;14.83;;
7473;SDS011;3778;42.572;23.426;2023-03-05T02:34:09;24.93;;;12.97;;
7473;SDS011;3778;42.572;23.426;2023-03-05T02:36:36;31.63;;;14.07;;
7473;SDS011;3778;42.572;23.426;2023-03-05T02:39:04;25.43;;;13.13;;
7473;SDS011;3778;42.572;23.426;2023-03-05T02:41:31;30.50;;;14.67;;
7473;SDS011;3778;42.572;23.426;2023-03-05T02:43:57;24.80;;;13.73;;
7473;SDS011;3778;42.572;23.426;2023-03-05T02:46:24;30.17;;;15.67;;
7473;SDS011;3778;42.572;23.426;2023-03-05T02:48:51;26.33;;;12.43;;
7473;SDS011;3778;42.572;23.426;2023-03-05T02:51:18;25.10;;;13.03;;
7473;SDS011;3778;42.572;23.426;2023-03-05T02:53:44;26.33;;;13.47;;
7473;SDS011;3778;42.572;23.426;2023-03-05T02:56:12;26.27;;;13.50;;
7473;SDS011;3778;42.572;23.426;2023-03-05T02:58:39;30.73;;;13.93;;
7473;SDS011;3778;42.572;23.426;2023-03-05T03:01:06;30.47;;;14.53;;
7473;SDS011;3778;42.572;23.426;2023-03-05T03:03:33;28.87;;;14.90;;
7473;SDS011;3778;42.572;23.426;2023-03-05T03:06:00;24.47;;;13.57;;
7473;SDS011;3778;42.572;23.426;2023-03-05T03:08:27;30.20;;;15.17;;
7473;SDS011;3778;42.572;23.426;2023-03-05T03:10:54;30.17;;;13.43;;
7473;SDS011;3778;42.572;23.426;2023-03-05T03:13:22;25.13;;;12.43;;
7473;SDS011;3778;42.572;23.426;2023-03-05T03:15:49;26.10;;;13.67;;
7473;SDS011;3778;42.572;23.426;2023-03-05T03:18:16;28.67;;;14.57;;
7473;SDS011;3778;42.572;23.426;2023-03-05T03:20:43;29.10;;;14.83;;
7473;SDS011;3778;42.572;23.426;2023-03-05T03:23:09;29.17;;;13.87;;
7473;SDS011;3778;42.572;23.426;2023-03-05T03:25:36;31.80;;;13.60;;
7473;SDS011;3778;42.572;23.426;2023-03-05T03:28:03;25.23;;;14.03;;
7473;SDS011;3778;42.572;23.426;2023-03-05T03:30:31;32.83;;;16.10;;
7473;SDS011;3778;42.572;23.426;2023-03-05T03:32:57;31.47;;;14.23;;
7473;SDS011;3778;42.572;23.426;2023-03-05T03:35:24;26.77;;;14.47;;
7473;SDS011;3778;42.572;23.426;2023-03-05T03:37:51;30.50;;;15.97;;
7473;SDS011;3778;42.572;23.426;2023-03-05T03:40:17;30.80;;;13.90;;
7473;SDS011;3778;42.572;23.426;2023-03-05T03:42:44;30.07;;;14.20;;
7473;SDS011;3778;42.572;23.426;2023-03-05T03:45:11;28.80;;;13.33;;
7473;SDS011;3778;42.572;23.426;2023-03-05T03:47:40;30.30;;;15.60;;
7473;SDS011;3778;42.572;23.426;2023-03-05T03:50:07;39.20;;;15.47;;
7473;SDS011;3778;42.572;23.426;2023-03-05T03:52:34;28.50;;;13.43;;
7473;SDS011;3778;42.572;23.426;2023-03-05T03:55:01;27.43;;;14.00;;
7473;SDS011;3778;42.572;23.426;2023-03-05T03:57:28;32.03;;;15.10;;
7473;SDS011;3778;42.572;23.426;2023-03-05T03:59:57;27.40;;;14.43;;
7473;SDS011;3778;42.572;23.426;2023-03-05T04:02:25;32.90;;;13.70;;
7473;SDS011;3778;42.572;23.426;2023-03-05T04:04:53;28.20;;;15.70;;
7473;SDS011;3778;42.572;23.426;2023-03-05T04:07:20;29.47;;;14.53;;
7473;SDS011;3778;42.572;23.426;2023-03-05T04:09:46;27.20;;;13.17;;
7473;SDS011;3778;42.572;23.426;2023-03-05T04:12:13;28.53;;;14.70;;
7473;SDS011;3778;42.572;23.426;2023-03-05T04:14:42;28.63;;;13.47;;
7473;SDS011;3778;42.572;23.426;2023-03-05T04:17:10;29.23;;;13.33;;
7473;SDS011;3778;42.572;23.426;2023-03-05T04:19:37;30.20;;;12.27;;
7473;SDS011;3778;42.572;23.426;2023-03-05T04:22:05;23.90;;;12.53;;
7473;SDS011;3778;42.572;23.426;2023-03-05T04:24:32;26.77;;;12.17;;
7473;SDS011;3778;42.572;23.426;2023-03-05T04:26:59;27.77;;;12.17;;
7473;SDS011;3778;42.572;23.426;2023-03-05T04:29:26;25.87;;;12.00;;
7473;SDS011;3778;42.572;23.426;2023-03-05T04:31:52;23.77;;;13.33;;
7473;SDS011;3778;42.572;23.426;2023-03-05T04:34:19;22.07;;;12.07;;
7473;SDS011;3778;42.572;23.426;2023-03-05T04:36:46;22.83;;;11.80;;
7473;SDS011;3778;42.572;23.426;2023-03-05T04:39:14;26.90;;;10.63;;
7473;SDS011;3778;42.572;23.426;2023-03-05T04:41:41;31.83;;;13.93;;
7473;SDS011;3778;42.572;23.426;2023-03-05T04:44:08;25.80;;;12.23;;
7473;SDS011;3778;42.572;23.426;2023-03-05T04:46:35;25.80;;;11.97;;
7473;SDS011;3778;42.572;23.426;2023-03-05T04:49:01;27.03;;;11.93;;
7473;SDS011;3778;42.572;23.426;2023-03-05T04:51:28;22.00;;;11.17;;
7473;SDS011;3778;42.572;23.426;2023-03-05T04:53:55;26.70;;;13.03;;
7473;SDS011;3778;42.572;23.426;2023-03-05T04:56:23;21.23;;;11.73;;
7473;SDS011;3778;42.572;23.426;2023-03-05T04:58:50;22.83;;;12.60;;
7473;SDS011;3778;42.572;23.426;2023-03-05T05:01:16;30.37;;;12.37;;
7473;SDS011;3778;42.572;23.426;2023-03-05T05:03:43;25.13;;;12.17;;
7473;SDS011;3778;42.572;23.426;2023-03-05T05:06:10;32.40;;;12.90;;
7473;SDS011;3778;42.572;23.426;2023-03-05T05:08:37;29.13;;;12.13;;
7473;SDS011;3778;42.572;23.426;2023-03-05T05:11:04;28.20;;;13.00;;
7473;SDS011;3778;42.572;23.426;2023-03-05T05:13:34;24.83;;;13.13;;
7473;SDS011;3778;42.572;23.426;2023-03-05T05:16:00;32.63;;;12.00;;
7473;SDS011;3778;42.572;23.426;2023-03-05T05:18:27;19.93;;;10.47;;
7473;SDS011;3778;42.572;23.426;2023-03-05T05:20:54;25.80;;;12.20;;
7473;SDS011;3778;42.572;23.426;2023-03-05T05:23:21;22.70;;;10.77;;
7473;SDS011;3778;42.572;23.426;2023-03-05T05:25:54;21.97;;;10.63;;
7473;SDS011;3778;42.572;23.426;2023-03-05T05:28:21;26.10;;;12.10;;
7473;SDS011;3778;42.572;23.426;2023-03-05T05:30:49;31.23;;;11.10;;
7473;SDS011;3778;42.572;23.426;2023-03-05T05:33:16;27.10;;;12.40;;
7473;SDS011;3778;42.572;23.426;2023-03-05T05:35:43;25.70;;;11.10;;
7473;SDS011;3778;42.572;23.426;2023-03-05T05:38:09;23.63;;;9.77;;
7473;SDS011;3778;42.572;23.426;2023-03-05T05:40:36;20.97;;;9.90;;
7473;SDS011;3778;42.572;23.426;2023-03-05T05:43:03;23.20;;;10.90;;
7473;SDS011;3778;42.572;23.426;2023-03-05T05:45:30;17.10;;;7.87;;
7473;SDS011;3778;42.572;23.426;2023-03-05T05:47:58;26.33;;;11.67;;
7473;SDS011;3778;42.572;23.426;2023-03-05T05:50:25;24.93;;;9.40;;
7473;SDS011;3778;42.572;23.426;2023-03-05T05:52:52;21.60;;;10.23;;
7473;SDS011;3778;42.572;23.426;2023-03-05T05:55:18;21.50;;;10.37;;
7473;SDS011;3778;42.572;23.426;2023-03-05T05:57:45;23.30;;;10.90;;
7473;SDS011;3778;42.572;23.426;2023-03-05T06:00:13;17.90;;;9.20;;
7473;SDS011;3778;42.572;23.426;2023-03-05T06:02:40;22.17;;;10.37;;
7473;SDS011;3778;42.572;23.426;2023-03-05T06:05:10;21.23;;;9.83;;
7473;SDS011;3778;42.572;23.426;2023-03-05T06:07:37;17.90;;;10.90;;
7473;SDS011;3778;42.572;23.426;2023-03-05T06:10:04;20.70;;;8.90;;
7473;SDS011;3778;42.572;23.426;2023-03-05T06:12:32;19.27;;;9.00;;
7473;SDS011;3778;42.572;23.426;2023-03-05T06:14:59;22.23;;;9.33;;
7473;SDS011;3778;42.572;23.426;2023-03-05T06:17:26;18.40;;;8.83;;
7473;SDS011;3778;42.572;23.426;2023-03-05T06:19:53;16.03;;;8.90;;
7473;SDS011;3778;42.572;23.426;2023-03-05T06:22:21;17.60;;;8.70;;
7473;SDS011;3778;42.572;23.426;2023-03-05T06:24:48;23.40;;;11.93;;
7473;SDS011;3778;42.572;23.426;2023-03-05T06:27:15;18.40;;;8.80;;
7473;SDS011;3778;42.572;23.426;2023-03-05T06:29:41;14.30;;;7.20;;
7473;SDS011;3778;42.572;23.426;2023-03-05T06:32:08;18.20;;;9.07;;
7473;SDS011;3778;42.572;23.426;2023-03-05T06:34:35;14.70;;;6.60;;
7473;SDS011;3778;42.572;23.426;2023-03-05T06:37:01;15.87;;;7.53;;
7473;SDS011;3778;42.572;23.426;2023-03-05T06:39:29;17.13;;;8.10;;
7473;SDS011;3778;42.572;23.426;2023-03-05T06:41:56;13.93;;;8.53;;
7473;SDS011;3778;42.572;23.426;2023-03-05T06:44:23;15.27;;;7.33;;
7473;SDS011;3778;42.572;23.426;2023-03-05T06:46:50;18.07;;;7.13;;
7473;SDS011;3778;42.572;23.426;2023-03-05T06:49:17;16.07;;;7.80;;
7473;SDS011;3778;42.572;23.426;2023-03-05T06:51:43;14.27;;;7.07;;
7473;SDS011;3778;42.572;23.426;2023-03-05T06:54:12;16.73;;;8.37;;
7473;SDS011;3778;42.572;23.426;2023-03-05T06:56:42;14.37;;;6.63;;
7473;SDS011;3778;42.572;23.426;2023-03-05T06:59:10;13.47;;;6.53;;
7473;SDS011;3778;42.572;23.426;2023-03-05T07:01:37;9.97;;;6.50;;
7473;SDS011;3778;42.572;23.426;2023-03-05T07:04:04;17.60;;;7.77;;
7473;SDS011;3778;42.572;23.426;2023-03-05T07:06:32;16.27;;;7.97;;
7473;SDS011;3778;42.572;23.426;2023-03-05T07:09:02;17.07;;;7.77;;
7473;SDS011;3778;42.572;23.426;2023-03-05T07:11:30;13.33;;;6.20;;
7473;SDS011;3778;42.572;23.426;2023-03-05T07:13:59;15.87;;;6.90;;
7473;SDS011;3778;42.572;23.426;2023-03-05T07:16:26;16.37;;;7.37;;
7473;SDS011;3778;42.572;23.426;2023-03-05T07:18:55;14.97;;;7.60;;
7473;SDS011;3778;42.572;23.426;2023-03-05T07:21:24;13.80;;;7.30;;
7473;SDS011;3778;42.572;23.426;2023-03-05T07:23:52;13.30;;;6.67;;
7473;SDS011;3778;42.572;23.426;2023-03-05T07:26:20;13.83;;;6.13;;
7473;SDS011;3778;42.572;23.426;2023-03-05T07:28:46;15.93;;;6.40;;
7473;SDS011;3778;42.572;23.426;2023-03-05T07:31:15;11.30;;;6.83;;
7473;SDS011;3778;42.572;23.426;2023-03-05T07:33:44;21.53;;;8.60;;
7473;SDS011;3778;42.572;23.426;2023-03-05T07:36:11;14.63;;;7.13;;
7473;SDS011;3778;42.572;23.426;2023-03-05T07:38:38;16.87;;;8.43;;
7473;SDS011;3778;42.572;23.426;2023-03-05T07:41:06;17.40;;;8.33;;
7473;SDS011;3778;42.572;23.426;2023-03-05T07:43:34;16.80;;;8.57;;
7473;SDS011;3778;42.572;23.426;2023-03-05T07:46:02;14.87;;;7.73;;
7473;SDS011;3778;42.572;23.426;2023-03-05T07:48:31;20.07;;;10.57;;
7473;SDS011;3778;42.572;23.426;2023-03-05T07:51:01;21.33;;;9.07;;
7473;SDS011;3778;42.572;23.426;2023-03-05T07:53:28;16.63;;;8.53;;
7473;SDS011;3778;42.572;23.426;2023-03-05T07:55:55;15.47;;;8.20;;
7473;SDS011;3778;42.572;23.426;2023-03-05T07:58:22;20.70;;;9.93;;
7473;SDS011;3778;42.572;23.426;2023-03-05T08:00:49;13.97;;;7.77;;
7473;SDS011;3778;42.572;23.426;2023-03-05T08:03:16;16.63;;;9.03;;
7473;SDS011;3778;42.572;23.426;2023-03-05T08:05:44;15.93;;;8.33;;
7473;SDS011;3778;42.572;23.426;2023-03-05T08:08:11;19.47;;;10.00;;
7473;SDS011;3778;42.572;23.426;2023-03-05T08:10:38;27.17;;;10.30;;
7473;SDS011;3778;42.572;23.426;2023-03-05T08:13:04;20.63;;;11.47;;
7473;SDS011;3778;42.572;23.426;2023-03-05T08:15:31;19.20;;;9.57;;
7473;SDS011;3778;42.572;23.426;2023-03-05T08:17:58;20.33;;;10.07;;
7473;SDS011;3778;42.572;23.426;2023-03-05T08:20:25;25.03;;;11.80;;
7473;SDS011;3778;42.572;23.426;2023-03-05T08:22:53;23.27;;;10.20;;
7473;SDS011;3778;42.572;23.426;2023-03-05T08:25:20;25.93;;;11.63;;
7473;SDS011;3778;42.572;23.426;2023-03-05T08:27:47;22.23;;;10.10;;
7473;SDS011;3778;42.572;23.426;2023-03-05T08:30:14;30.27;;;12.40;;
7473;SDS011;3778;42.572;23.426;2023-03-05T08:32:43;19.70;;;9.60;;
7473;SDS011;3778;42.572;23.426;2023-03-05T08:35:10;29.97;;;12.80;;
7473;SDS011;3778;42.572;23.426;2023-03-05T08:37:37;26.70;;;10.87;;
7473;SDS011;3778;42.572;23.426;2023-03-05T08:40:06;21.40;;;11.47;;
7473;SDS011;3778;42.572;23.426;2023-03-05T08:42:34;22.60;;;11.43;;
7473;SDS011;3778;42.572;23.426;2023-03-05T08:45:01;20.03;;;11.33;;
7473;SDS011;3778;42.572;23.426;2023-03-05T08:47:27;23.57;;;12.07;;
7473;SDS011;3778;42.572;23.426;2023-03-05T08:49:54;20.60;;;10.10;;
7473;SDS011;3778;42.572;23.426;2023-03-05T08:52:21;19.33;;;9.80;;
7473;SDS011;3778;42.572;23.426;2023-03-05T08:54:48;19.63;;;10.87;;
7473;SDS011;3778;42.572;23.426;2023-03-05T08:57:16;28.47;;;11.33;;
7473;SDS011;3778;42.572;23.426;2023-03-05T08:59:43;21.93;;;11.23;;
7473;SDS011;3778;42.572;23.426;2023-03-05T09:02:10;22.27;;;10.37;;
7473;SDS011;3778;42.572;23.426;2023-03-05T09:04:38;27.67;;;11.80;;
7473;SDS011;3778;42.572;23.426;2023-03-05T09:07:05;26.73;;;12.83;;
7473;SDS011;3778;42.572;23.426;2023-03-05T09:09:32;25.23;;;10.03;;
7473;SDS011;3778;42.572;23.426;2023-03-05T09:11:59;23.10;;;11.67;;
7473;SDS011;3778;42.572;23.426;2023-03-05T09:14:27;22.53;;;11.23;;
7473;SDS011;3778;42.572;23.426;2023-03-05T09:16:54;18.67;;;10.30;;
7473;SDS011;3778;42.572;23.426;2023-03-05T09:19:21;23.73;;;10.10;;
7473;SDS011;3778;42.572;23.426;2023-03-05T09:21:47;22.20;;;10.67;;
7473;SDS011;3778;42.572;23.426;2023-03-05T09:24:14;21.37;;;8.90;;
7473;SDS011;3778;42.572;23.426;2023-03-05T09:26:41;28.77;;;11.00;;
7473;SDS011;3778;42.572;23.426;2023-03-05T09:29:08;17.40;;;8.47;;
7473;SDS011;3778;42.572;23.426;2023-03-05T09:31:36;18.97;;;9.93;;
7473;SDS011;3778;42.572;23.426;2023-03-05T09:34:03;18.03;;;9.20;;
7473;SDS011;3778;42.572;23.426;2023-03-05T09:36:32;21.03;;;9.03;;
7473;SDS011;3778;42.572;23.426;2023-03-05T09:38:59;20.93;;;9.47;;
7473;SDS011;3778;42.572;23.426;2023-03-05T09:41:27;19.20;;;9.37;;
7473;SDS011;3778;42.572;23.426;2023-03-05T09:44:04;17.83;;;9.97;;
7473;SDS011;3778;42.572;23.426;2023-03-05T09:46:41;24.37;;;9.70;;
7473;SDS011;3778;42.572;23.426;2023-03-05T09:49:19;15.77;;;8.50;;
7473;SDS011;3778;42.572;23.426;2023-03-05T09:52:02;16.40;;;8.47;;
7473;SDS011;3778;42.572;23.426;2023-03-05T09:54:37;21.13;;;9.17;;
7473;SDS011;3778;42.572;23.426;2023-03-05T09:57:09;17.67;;;9.77;;
7473;SDS011;3778;42.572;23.426;2023-03-05T09:59:42;14.93;;;8.50;;
7473;SDS011;3778;42.572;23.426;2023-03-05T10:02:17;17.57;;;8.80;;
7473;SDS011;3778;42.572;23.426;2023-03-05T10:04:50;17.20;;;8.47;;
7473;SDS011;3778;42.572;23.426;2023-03-05T10:07:19;20.30;;;10.13;;
7473;SDS011;3778;42.572;23.426;2023-03-05T10:09:50;20.13;;;10.77;;
7473;SDS011;3778;42.572;23.426;2023-03-05T10:12:22;16.47;;;9.33;;
7473;SDS011;3778;42.572;23.426;2023-03-05T10:14:52;16.47;;;8.50;;
7473;SDS011;3778;42.572;23.426;2023-03-05T10:26:15;20.97;;;9.87;;
7473;SDS011;3778;42.572;23.426;2023-03-05T10:28:52;24.13;;;12.63;;
7473;SDS011;3778;42.572;23.426;2023-03-05T10:31:38;21.23;;;10.83;;
7473;SDS011;3778;42.572;23.426;2023-03-05T10:34:16;20.77;;;10.47;;
7473;SDS011;3778;42.572;23.426;2023-03-05T10:36:58;21.23;;;10.57;;
7473;SDS011;3778;42.572;23.426;2023-03-05T10:39:42;26.03;;;11.50;;
7473;SDS011;3778;42.572;23.426;2023-03-05T10:42:20;19.60;;;9.90;;
7473;SDS011;3778;42.572;23.426;2023-03-05T10:44:53;21.17;;;10.87;;
7473;SDS011;3778;42.572;23.426;2023-03-05T10:47:23;21.10;;;10.57;;
7473;SDS011;3778;42.572;23.426;2023-03-05T10:49:55;20.50;;;10.47;;
7473;SDS011;3778;42.572;23.426;2023-03-05T10:52:24;17.43;;;8.93;;
7473;SDS011;3778;42.572;23.426;2023-03-05T10:54:56;19.50;;;8.87;;
7473;SDS011;3778;42.572;23.426;2023-03-05T10:57:23;21.33;;;11.33;;
7473;SDS011;3778;42.572;23.426;2023-03-05T10:59:52;22.87;;;12.43;;
7473;SDS011;3778;42.572;23.426;2023-03-05T11:02:22;23.40;;;11.40;;
7473;SDS011;3778;42.572;23.426;2023-03-05T11:04:50;21.37;;;11.73;;
7473;SDS011;3778;42.572;23.426;2023-03-05T11:07:35;21.20;;;10.77;;
7473;SDS011;3778;42.572;23.426;2023-03-05T11:10:16;21.27;;;10.80;;
7473;SDS011;3778;42.572;23.426;2023-03-05T11:12:45;20.10;;;9.63;;
7473;SDS011;3778;42.572;23.426;2023-03-05T11:15:28;17.27;;;9.43;;
7473;SDS011;3778;42.572;23.426;2023-03-05T11:18:06;15.23;;;8.23;;
7473;SDS011;3778;42.572;23.426;2023-03-05T11:20:42;11.07;;;8.10;;
7473;SDS011;3778;42.572;23.426;2023-03-05T11:23:11;11.57;;;7.40;;
7473;SDS011;3778;42.572;23.426;2023-03-05T11:25:53;14.83;;;7.77;;
7473;SDS011;3778;42.572;23.426;2023-03-05T11:28:23;14.93;;;8.80;;
7473;SDS011;3778;42.572;23.426;2023-03-05T11:30:56;17.20;;;8.27;;
7473;SDS011;3778;42.572;23.426;2023-03-05T11:33:25;10.67;;;7.53;;
7473;SDS011;3778;42.572;23.426;2023-03-05T11:35:53;22.07;;;9.30;;
7473;SDS011;3778;42.572;23.426;2023-03-05T11:38:44;19.50;;;11.00;;
7473;SDS011;3778;42.572;23.426;2023-03-05T11:41:15;18.83;;;10.00;;
7473;SDS011;3778;42.572;23.426;2023-03-05T11:43:45;18.70;;;8.90;;
7473;SDS011;3778;42.572;23.426;2023-03-05T11:46:13;13.50;;;8.23;;
7473;SDS011;3778;42.572;23.426;2023-03-05T11:48:43;16.57;;;9.17;;
7473;SDS011;3778;42.572;23.426;2023-03-05T11:51:14;16.33;;;9.00;;
7473;SDS011;3778;42.572;23.426;2023-03-05T11:53:46;15.13;;;8.63;;
7473;SDS011;3778;42.572;23.426;2023-03-05T11:56:18;15.80;;;7.03;;
7473;SDS011;3778;42.572;23.426;2023-03-05T11:58:47;14.13;;;7.73;;
7473;SDS011;3778;42.572;23.426;2023-03-05T12:01:18;16.40;;;9.20;;
7473;SDS011;3778;42.572;23.426;2023-03-05T12:03:46;17.43;;;9.03;;
7473;SDS011;3778;42.572;23.426;2023-03-05T12:06:16;14.53;;;8.53;;
7473;SDS011;3778;42.572;23.426;2023-03-05T12:08:52;14.87;;;8.37;;
7473;SDS011;3778;42.572;23.426;2023-03-05T12:11:22;17.03;;;9.90;;
7473;SDS011;3778;42.572;23.426;2023-03-05T12:13:53;15.07;;;8.93;;
7473;SDS011;3778;42.572;23.426;2023-03-05T12:16:24;18.73;;;9.83;;
7473;SDS011;3778;42.572;23.426;2023-03-05T12:18:58;13.63;;;8.13;;
7473;SDS011;3778;42.572;23.426;2023-03-05T12:21:35;15.80;;;10.10;;
7473;SDS011;3778;42.572;23.426;2023-03-05T12:29:56;13.97;;;8.07;;
7473;SDS011;3778;42.572;23.426;2023-03-05T12:35:27;12.70;;;5.83;;
7473;SDS011;3778;42.572;23.426;2023-03-05T12:38:04;15.43;;;6.80;;
7473;SDS011;3778;42.572;23.426;2023-03-05T12:40:43;13.43;;;7.57;;
7473;SDS011;3778;42.572;23.426;2023-03-05T12:48:50;45.53;;;10.63;;
7473;SDS011;3778;42.572;23.426;2023-03-05T12:51:28;14.60;;;8.37;;
7473;SDS011;3778;42.572;23.426;2023-03-05T12:56:48;9.97;;;6.83;;
7473;SDS011;3778;42.572;23.426;2023-03-05T12:59:18;16.23;;;9.40;;
7473;SDS011;3778;42.572;23.426;2023-03-05T13:01:48;24.90;;;10.57;;
7473;SDS011;3778;42.572;23.426;2023-03-05T13:04:21;15.60;;;9.30;;
7473;SDS011;3778;42.572;23.426;2023-03-05T13:06:56;12.53;;;6.60;;
7473;SDS011;3778;42.572;23.426;2023-03-05T13:09:25;13.80;;;8.23;;
7473;SDS011;3778;42.572;23.426;2023-03-05T13:11:55;19.00;;;8.90;;
7473;SDS011;3778;42.572;23.426;2023-03-05T13:14:31;19.80;;;9.97;;
7473;SDS011;3778;42.572;23.426;2023-03-05T13:17:01;14.90;;;8.63;;
7473;SDS011;3778;42.572;23.426;2023-03-05T13:19:28;15.13;;;9.67;;
7473;SDS011;3778;42.572;23.426;2023-03-05T13:22:00;18.50;;;9.93;;
7473;SDS011;3778;42.572;23.426;2023-03-05T13:24:28;13.93;;;7.70;;
7473;SDS011;3778;42.572;23.426;2023-03-05T13:26:56;15.10;;;9.30;;
7473;SDS011;3778;42.572;23.426;2023-03-05T13:29:23;17.23;;;8.83;;
7473;SDS011;3778;42.572;23.426;2023-03-05T13:31:53;15.10;;;7.03;;
7473;SDS011;3778;42.572;23.426;2023-03-05T13:34:22;14.37;;;8.73;;
7473;SDS011;3778;42.572;23.426;2023-03-05T13:36:53;13.93;;;8.03;;
7473;SDS011;3778;42.572;23.426;2023-03-05T13:39:24;14.20;;;7.33;;
7473;SDS011;3778;42.572;23.426;2023-03-05T13:41:58;17.00;;;8.63;;
7473;SDS011;3778;42.572;23.426;2023-03-05T13:44:28;12.40;;;7.87;;
7473;SDS011;3778;42.572;23.426;2023-03-05T13:47:08;11.87;;;7.20;;
7473;SDS011;3778;42.572;23.426;2023-03-05T13:49:41;14.37;;;8.30;;
7473;SDS011;3778;42.572;23.426;2023-03-05T13:52:09;16.33;;;7.80;;
7473;SDS011;3778;42.572;23.426;2023-03-05T13:54:39;11.77;;;7.47;;
7473;SDS011;3778;42.572;23.426;2023-03-05T13:57:25;13.83;;;8.37;;
7473;SDS011;3778;42.572;23.426;2023-03-05T13:59:58;15.87;;;9.37;;
7473;SDS011;3778;42.572;23.426;2023-03-05T14:02:25;13.43;;;7.97;;
7473;SDS011;3778;42.572;23.426;2023-03-05T14:04:54;12.93;;;7.47;;
7473;SDS011;3778;42.572;23.426;2023-03-05T14:07:24;14.57;;;8.00;;
7473;SDS011;3778;42.572;23.426;2023-03-05T14:09:58;12.40;;;6.33;;
7473;SDS011;3778;42.572;23.426;2023-03-05T14:12:29;13.43;;;8.23;;
7473;SDS011;3778;42.572;23.426;2023-03-05T14:15:02;15.87;;;9.47;;
7473;SDS011;3778;42.572;23.426;2023-03-05T14:17:33;15.57;;;9.13;;
7473;SDS011;3778;42.572;23.426;2023-03-05T14:22:52;13.63;;;7.40;;
7473;SDS011;3778;42.572;23.426;2023-03-05T14:25:30;12.50;;;7.43;;
7473;SDS011;3778;42.572;23.426;2023-03-05T14:28:03;18.87;;;8.63;;
7473;SDS011;3778;42.572;23.426;2023-03-05T14:30:30;16.43;;;7.00;;
7473;SDS011;3778;42.572;23.426;2023-03-05T14:33:00;19.23;;;9.73;;
7473;SDS011;3778;42.572;23.426;2023-03-05T14:35:27;16.90;;;10.07;;
7473;SDS011;3778;42.572;23.426;2023-03-05T14:37:55;19.30;;;9.57;;
7473;SDS011;3778;42.572;23.426;2023-03-05T14:40:26;19.00;;;9.47;;
7473;SDS011;3778;42.572;23.426;2023-03-05T14:42:55;17.37;;;9.97;;
7473;SDS011;3778;42.572;23.426;2023-03-05T14:45:25;15.97;;;9.13;;
7473;SDS011;3778;42.572;23.426;2023-03-05T14:47:53;22.43;;;10.97;;
7473;SDS011;3778;42.572;23.426;2023-03-05T14:50:23;22.73;;;11.10;;
7473;SDS011;3778;42.572;23.426;2023-03-05T14:52:51;18.63;;;11.07;;
7473;SDS011;3778;42.572;23.426;2023-03-05T14:55:21;16.13;;;8.80;;
7473;SDS011;3778;42.572;23.426;2023-03-05T14:57:50;23.60;;;10.23;;
7473;SDS011;3778;42.572;23.426;2023-03-05T15:00:21;20.87;;;10.43;;
7473;SDS011;3778;42.572;23.426;2023-03-05T15:02:50;21.07;;;9.87;;
7473;SDS011;3778;42.572;23.426;2023-03-05T15:05:17;18.40;;;9.40;;
7473;SDS011;3778;42.572;23.426;2023-03-05T15:07:44;18.57;;;8.63;;
7473;SDS011;3778;42.572;23.426;2023-03-05T15:10:13;16.83;;;9.80;;
7473;SDS011;3778;42.572;23.426;2023-03-05T15:12:41;23.47;;;10.27;;
7473;SDS011;3778;42.572;23.426;2023-03-05T15:15:10;24.27;;;13.50;;
7473;SDS011;3778;42.572;23.426;2023-03-05T15:17:39;20.60;;;10.20;;
7473;SDS011;3778;42.572;23.426;2023-03-05T15:20:10;15.60;;;10.13;;